createdAt,value
2022-10-28T00:00:09.331Z,9.40
2022-10-28T00:01:20.535Z,9.43
2022-10-28T00:02:22.762Z,9.57
2022-10-28T00:03:24.975Z,8.60
2022-10-28T00:04:27.596Z,8.95
2022-10-28T00:05:34.261Z,9.35
2022-10-28T00:06:37.049Z,9.07
2022-10-28T00:07:39.181Z,8.63
2022-10-28T00:08:42.258Z,8.98
2022-10-28T00:09:44.641Z,9.18
2022-10-28T00:10:46.794Z,9.68
2022-10-28T00:11:49.101Z,9.02
2022-10-28T00:12:51.414Z,9.15
2022-10-28T00:13:55.358Z,8.57
2022-10-28T00:14:57.878Z,9.50
2022-10-28T00:16:10.961Z,9.07
2022-10-28T00:17:13.157Z,8.30
2022-10-28T00:18:15.531Z,8.60
2022-10-28T00:19:17.943Z,9.27
2022-10-28T00:20:20.399Z,9.32
2022-10-28T00:21:26.087Z,8.02
2022-10-28T00:22:28.332Z,8.55
2022-10-28T00:23:30.823Z,8.30
2022-10-28T00:24:33.186Z,8.55
2022-10-28T00:25:35.400Z,8.48
2022-10-28T00:26:42.275Z,8.15
2022-10-28T00:27:44.614Z,9.15
2022-10-28T00:28:54.569Z,8.95
2022-10-28T00:29:57.169Z,8.27
2022-10-28T00:31:10.307Z,8.30
2022-10-28T00:32:12.454Z,8.23
2022-10-28T00:33:14.599Z,8.35
2022-10-28T00:34:21.258Z,8.50
2022-10-28T00:35:23.820Z,8.63
2022-10-28T00:36:34.353Z,8.93
2022-10-28T00:37:36.519Z,8.40
2022-10-28T00:38:39.640Z,8.07
2022-10-28T00:39:41.836Z,8.18
2022-10-28T00:40:44.004Z,8.40
2022-10-28T00:41:55.044Z,7.63
2022-10-28T00:42:57.219Z,7.72
2022-10-28T00:44:37.186Z,8.00
2022-10-28T00:45:39.654Z,8.52
2022-10-28T00:46:47.976Z,8.77
2022-10-28T00:47:52.606Z,8.57
2022-10-28T00:49:21.065Z,7.93
2022-10-28T00:50:29.150Z,7.97
2022-10-28T00:51:33.903Z,7.47
2022-10-28T00:52:36.141Z,8.70
2022-10-28T00:53:40.661Z,8.52
2022-10-28T00:54:44.412Z,7.82
2022-10-28T00:55:48.108Z,8.40
2022-10-28T00:56:53.526Z,8.45
2022-10-28T00:57:57.550Z,8.50
2022-10-28T00:59:02.387Z,7.93
2022-10-28T01:00:07.343Z,8.20
2022-10-28T01:01:09.510Z,7.93
2022-10-28T01:02:12.331Z,8.68
2022-10-28T01:03:16.036Z,7.75
2022-10-28T01:04:18.769Z,7.72
2022-10-28T01:05:26.265Z,8.65
2022-10-28T01:06:29.094Z,7.50
2022-10-28T01:07:31.232Z,8.10
2022-10-28T01:08:33.516Z,7.97
2022-10-28T01:09:35.679Z,7.63
2022-10-28T01:10:50.163Z,7.68
2022-10-28T01:12:32.718Z,8.13
2022-10-28T01:13:34.867Z,7.40
2022-10-28T01:14:55.161Z,7.65
2022-10-28T01:16:17.547Z,7.38
2022-10-28T01:18:05.075Z,7.50
2022-10-28T01:19:44.363Z,7.28
2022-10-28T01:20:52.635Z,6.60
2022-10-28T01:22:06.022Z,7.68
2022-10-28T01:23:08.120Z,7.63
2022-10-28T01:24:35.768Z,7.35
2022-10-28T01:25:40.897Z,7.60
2022-10-28T01:27:04.858Z,7.63
2022-10-28T01:28:27.623Z,7.40
2022-10-28T01:29:54.586Z,7.40
2022-10-28T01:31:19.543Z,7.60
2022-10-28T01:32:58.445Z,7.20
2022-10-28T01:34:22.520Z,6.88
2022-10-28T01:36:58.088Z,7.63
2022-10-28T01:38:32.996Z,7.03
2022-10-28T01:39:49.370Z,7.47
2022-10-28T01:41:12.482Z,7.82
2022-10-28T01:42:20.524Z,6.90
2022-10-28T01:43:25.383Z,7.18
2022-10-28T01:44:34.410Z,7.20
2022-10-28T01:45:49.492Z,6.90
2022-10-28T01:47:35.509Z,7.90
2022-10-28T01:48:44.827Z,7.13
2022-10-28T01:50:13.029Z,6.88
2022-10-28T01:51:25.407Z,7.00
2022-10-28T01:52:30.519Z,7.60
2022-10-28T01:53:38.239Z,6.93
2022-10-28T01:54:45.746Z,7.18
2022-10-28T01:55:51.744Z,7.20
2022-10-28T01:56:57.090Z,6.82
2022-10-28T01:58:02.515Z,7.00
2022-10-28T01:59:09.711Z,6.22
2022-10-28T02:00:12.561Z,6.88
2022-10-28T02:01:16.652Z,6.88
2022-10-28T02:02:19.060Z,6.43
2022-10-28T02:03:21.255Z,6.93
2022-10-28T02:04:23.611Z,6.85
2022-10-28T02:05:40.964Z,6.88
2022-10-28T02:06:46.247Z,6.80
2022-10-28T02:07:52.449Z,7.05
2022-10-28T02:09:15.504Z,6.45
2022-10-28T02:10:23.360Z,7.20
2022-10-28T02:11:31.350Z,7.28
2022-10-28T02:12:38.701Z,6.68
2022-10-28T02:13:43.956Z,7.30
2022-10-28T02:15:14.142Z,6.30
2022-10-28T02:16:28.400Z,6.35
2022-10-28T02:17:55.146Z,7.35
2022-10-28T02:19:06.824Z,6.50
2022-10-28T02:20:21.381Z,5.97
2022-10-28T02:21:42.542Z,6.47
2022-10-28T02:23:08.390Z,6.18
2022-10-28T02:24:24.145Z,6.90
2022-10-28T02:25:34.970Z,6.07
2022-10-28T02:27:44.707Z,6.07
2022-10-28T02:29:13.834Z,5.72
2022-10-28T02:30:26.008Z,6.22
2022-10-28T02:31:46.326Z,5.78
2022-10-28T02:32:57.775Z,6.05
2022-10-28T02:34:06.704Z,6.40
2022-10-28T02:35:16.486Z,6.88
2022-10-28T02:36:22.191Z,6.53
2022-10-28T02:37:29.984Z,6.70
2022-10-28T02:38:46.062Z,6.32
2022-10-28T02:39:53.627Z,6.03
2022-10-28T02:41:02.667Z,6.22
2022-10-28T02:42:16.873Z,6.30
2022-10-28T02:43:22.775Z,6.05
2022-10-28T02:44:33.958Z,6.32
2022-10-28T02:45:42.426Z,6.60
2022-10-28T02:46:50.049Z,6.45
2022-10-28T02:47:57.810Z,6.68
2022-10-28T02:49:04.666Z,6.25
2022-10-28T02:50:11.007Z,6.30
2022-10-28T02:51:17.778Z,6.10
2022-10-28T02:52:23.092Z,6.50
2022-10-28T02:53:31.851Z,6.35
2022-10-28T02:55:54.250Z,6.88
2022-10-28T02:57:04.050Z,6.15
2022-10-28T02:58:06.964Z,6.60
2022-10-28T02:59:11.519Z,6.35
2022-10-28T03:00:20.326Z,7.00
2022-10-28T03:01:22.928Z,5.80
2022-10-28T03:02:26.179Z,6.13
2022-10-28T03:03:28.529Z,6.43
2022-10-28T03:04:30.945Z,6.68
2022-10-28T03:05:33.092Z,6.43
2022-10-28T03:06:35.419Z,7.28
2022-10-28T03:07:37.790Z,7.03
2022-10-28T03:08:39.979Z,6.68
2022-10-28T03:09:42.448Z,6.55
2022-10-28T03:10:44.603Z,6.57
2022-10-28T03:11:46.768Z,6.38
2022-10-28T03:12:48.927Z,6.72
2022-10-28T03:13:51.073Z,6.88
2022-10-28T03:14:53.434Z,6.65
2022-10-28T03:15:55.652Z,6.80
2022-10-28T03:16:57.808Z,6.63
2022-10-28T03:17:59.969Z,6.28
2022-10-28T03:19:03.422Z,6.22
2022-10-28T03:20:06.530Z,6.75
2022-10-28T03:21:08.734Z,6.57
2022-10-28T03:22:10.892Z,6.18
2022-10-28T03:23:13.298Z,6.50
2022-10-28T03:24:15.460Z,5.75
2022-10-28T03:25:17.672Z,6.47
2022-10-28T03:26:19.930Z,6.50
2022-10-28T03:27:22.086Z,7.13
2022-10-28T03:28:24.425Z,6.30
2022-10-28T03:29:26.801Z,6.43
2022-10-28T03:30:28.974Z,6.10
2022-10-28T03:31:31.276Z,6.22
2022-10-28T03:32:33.427Z,5.95
2022-10-28T03:33:35.773Z,6.07
2022-10-28T03:34:38.119Z,6.10
2022-10-28T03:35:40.289Z,6.32
2022-10-28T03:36:42.617Z,6.68
2022-10-28T03:37:44.770Z,6.00
2022-10-28T03:38:46.962Z,6.18
2022-10-28T03:39:49.215Z,5.90
2022-10-28T03:40:51.594Z,6.55
2022-10-28T03:41:53.947Z,6.30
2022-10-28T03:42:56.487Z,6.18
2022-10-28T03:43:58.953Z,5.88
2022-10-28T03:45:01.531Z,7.40
2022-10-28T03:46:03.706Z,6.15
2022-10-28T03:47:06.081Z,6.10
2022-10-28T03:48:08.447Z,6.05
2022-10-28T03:49:10.619Z,6.10
2022-10-28T03:50:12.977Z,6.70
2022-10-28T03:51:15.172Z,6.80
2022-10-28T03:52:17.584Z,6.60
2022-10-28T03:53:20.408Z,6.22
2022-10-28T03:54:22.775Z,6.82
2022-10-28T03:55:26.088Z,6.70
2022-10-28T03:56:31.061Z,5.95
2022-10-28T03:57:33.625Z,6.25
2022-10-28T03:58:41.324Z,6.43
2022-10-28T03:59:43.906Z,5.50
2022-10-28T04:00:49.889Z,6.25
2022-10-28T04:01:52.291Z,6.28
2022-10-28T04:02:54.926Z,6.13
2022-10-28T04:03:57.757Z,6.00
2022-10-28T04:05:00.133Z,6.63
2022-10-28T04:06:02.368Z,6.45
2022-10-28T04:07:04.598Z,6.30
2022-10-28T04:08:06.887Z,6.18
2022-10-28T04:09:09.290Z,5.85
2022-10-28T04:10:11.983Z,6.95
2022-10-28T04:11:14.242Z,6.43
2022-10-28T04:12:16.845Z,6.75
2022-10-28T04:13:19.199Z,6.88
2022-10-28T04:14:21.609Z,7.35
2022-10-28T04:15:23.997Z,6.30
2022-10-28T04:16:26.333Z,6.00
2022-10-28T04:17:28.786Z,6.53
2022-10-28T04:18:31.907Z,6.47
2022-10-28T04:19:34.101Z,7.15
2022-10-28T04:20:36.926Z,6.97
2022-10-28T04:21:39.169Z,6.07
2022-10-28T04:22:41.584Z,6.57
2022-10-28T04:23:43.798Z,6.82
2022-10-28T04:24:46.241Z,7.20
2022-10-28T04:25:53.359Z,6.47
2022-10-28T04:26:55.746Z,7.22
2022-10-28T04:27:58.126Z,7.07
2022-10-28T04:29:00.377Z,7.07
2022-10-28T04:30:04.112Z,6.93
2022-10-28T04:31:06.471Z,6.57
2022-10-28T04:32:09.386Z,6.80
2022-10-28T04:33:12.445Z,7.53
2022-10-28T04:34:14.588Z,7.25
2022-10-28T04:35:17.055Z,6.55
2022-10-28T04:36:19.393Z,7.32
2022-10-28T04:37:21.629Z,7.20
2022-10-28T04:39:27.269Z,7.30
2022-10-28T04:40:29.462Z,7.40
2022-10-28T04:41:31.772Z,7.95
2022-10-28T04:42:34.418Z,7.63
2022-10-28T04:43:37.977Z,7.65
2022-10-28T04:44:40.129Z,7.72
2022-10-28T04:45:42.670Z,8.13
2022-10-28T04:46:45.083Z,8.30
2022-10-28T04:47:47.253Z,6.70
2022-10-28T04:48:50.017Z,6.95
2022-10-28T04:49:52.803Z,7.38
2022-10-28T04:50:57.372Z,7.05
2022-10-28T04:51:59.571Z,7.30
2022-10-28T04:53:01.828Z,6.55
2022-10-28T04:54:04.332Z,6.55
2022-10-28T04:55:06.929Z,6.53
2022-10-28T04:56:10.133Z,7.28
2022-10-28T04:57:12.412Z,6.95
2022-10-28T04:58:14.626Z,7.22
2022-10-28T04:59:17.079Z,7.05
2022-10-28T05:00:19.343Z,6.90
2022-10-28T05:01:21.897Z,6.88
2022-10-28T05:02:24.362Z,7.68
2022-10-28T05:03:26.648Z,7.03
2022-10-28T05:04:29.141Z,7.07
2022-10-28T05:05:31.371Z,7.13
2022-10-28T05:06:33.834Z,7.78
2022-10-28T05:07:36.082Z,6.82
2022-10-28T05:08:38.292Z,7.05
2022-10-28T05:09:40.657Z,7.28
2022-10-28T05:10:42.850Z,7.25
2022-10-28T05:11:45.398Z,7.03
2022-10-28T05:12:47.806Z,6.97
2022-10-28T05:13:53.138Z,7.07
2022-10-28T05:14:55.766Z,6.85
2022-10-28T05:15:58.163Z,7.13
2022-10-28T05:17:00.912Z,7.95
2022-10-28T05:18:03.170Z,7.72
2022-10-28T05:19:05.720Z,6.90
2022-10-28T05:20:08.995Z,9.60
2022-10-28T05:21:11.208Z,10.77
2022-10-28T05:22:13.567Z,8.10
2022-10-28T05:23:15.764Z,8.52
2022-10-28T05:24:17.926Z,8.57
2022-10-28T05:25:20.761Z,8.20
2022-10-28T05:26:23.184Z,7.65
2022-10-28T05:27:28.363Z,8.13
2022-10-28T05:28:30.833Z,7.25
2022-10-28T05:29:33.546Z,6.88
2022-10-28T05:30:36.691Z,7.90
2022-10-28T05:31:39.327Z,8.30
2022-10-28T05:32:41.531Z,8.02
2022-10-28T05:33:43.910Z,7.68
2022-10-28T05:34:46.207Z,7.78
2022-10-28T05:35:48.363Z,7.78
2022-10-28T05:36:51.090Z,7.60
2022-10-28T05:37:53.235Z,7.45
2022-10-28T05:38:55.620Z,7.75
2022-10-28T05:39:57.817Z,8.35
2022-10-28T05:41:00.133Z,7.88
2022-10-28T05:42:02.521Z,8.25
2022-10-28T05:43:04.933Z,7.45
2022-10-28T05:44:07.288Z,8.20
2022-10-28T05:45:10.659Z,7.78
2022-10-28T05:46:12.813Z,8.02
2022-10-28T05:47:15.339Z,8.05
2022-10-28T05:48:17.617Z,8.65
2022-10-28T05:49:20.314Z,8.00
2022-10-28T05:50:25.324Z,8.35
2022-10-28T05:51:27.674Z,8.15
2022-10-28T05:52:30.307Z,8.38
2022-10-28T05:53:32.609Z,7.95
2022-10-28T05:54:34.809Z,8.32
2022-10-28T05:55:37.285Z,7.78
2022-10-28T05:56:39.439Z,7.93
2022-10-28T05:57:41.984Z,8.40
2022-10-28T05:58:44.972Z,8.18
2022-10-28T05:59:47.119Z,8.13
2022-10-28T06:00:49.560Z,8.13
2022-10-28T06:01:51.802Z,8.13
2022-10-28T06:03:03.044Z,8.27
2022-10-28T06:04:07.568Z,9.43
2022-10-28T06:05:11.263Z,8.10
2022-10-28T06:06:13.446Z,7.80
2022-10-28T06:07:15.806Z,7.65
2022-10-28T06:08:17.979Z,7.25
2022-10-28T06:09:20.121Z,9.95
2022-10-28T06:10:22.327Z,9.02
2022-10-28T06:11:22.987Z,8.02
2022-10-28T06:12:26.155Z,7.53
2022-10-28T06:13:28.380Z,7.57
2022-10-28T06:14:30.731Z,7.93
2022-10-28T06:15:33.193Z,7.90
2022-10-28T06:16:35.712Z,8.00
2022-10-28T06:17:38.104Z,7.30
2022-10-28T06:18:40.296Z,8.18
2022-10-28T06:19:42.505Z,7.97
2022-10-28T06:20:59.192Z,7.55
2022-10-28T06:22:01.590Z,7.75
2022-10-28T06:23:04.532Z,8.18
2022-10-28T06:24:11.224Z,7.47
2022-10-28T06:25:14.976Z,8.07
2022-10-28T06:26:17.359Z,7.68
2022-10-28T06:27:19.891Z,6.70
2022-10-28T06:28:22.354Z,7.50
2022-10-28T06:29:25.265Z,7.68
2022-10-28T06:30:27.612Z,7.35
2022-10-28T06:31:29.819Z,7.47
2022-10-28T06:32:32.610Z,7.68
2022-10-28T06:33:35.083Z,7.78
2022-10-28T06:34:37.855Z,7.10
2022-10-28T06:35:40.277Z,6.93
2022-10-28T06:36:42.507Z,7.20
2022-10-28T06:37:44.931Z,7.95
2022-10-28T06:38:47.144Z,7.53
2022-10-28T06:39:52.775Z,8.13
2022-10-28T06:40:58.112Z,6.97
2022-10-28T06:42:00.313Z,7.85
2022-10-28T06:43:04.979Z,11.90
2022-10-28T06:44:07.225Z,10.20
2022-10-28T06:45:12.174Z,10.68
2022-10-28T06:46:14.511Z,12.77
2022-10-28T06:47:18.549Z,14.75
2022-10-28T06:48:20.893Z,11.98
2022-10-28T06:49:23.297Z,16.48
2022-10-28T06:50:26.612Z,14.35
2022-10-28T06:51:29.749Z,11.27
2022-10-28T06:52:32.298Z,10.10
2022-10-28T06:53:34.686Z,8.43
2022-10-28T06:54:36.943Z,9.10
2022-10-28T06:55:41.186Z,8.68
2022-10-28T06:56:45.249Z,8.70
2022-10-28T06:57:47.619Z,8.15
2022-10-28T06:58:53.499Z,7.93
2022-10-28T06:59:58.305Z,9.10
2022-10-28T07:01:06.662Z,8.50
2022-10-28T07:02:12.057Z,8.18
2022-10-28T07:03:14.748Z,8.32
2022-10-28T07:04:16.901Z,7.70
2022-10-28T07:05:19.532Z,7.95
2022-10-28T07:06:21.878Z,8.55
2022-10-28T07:07:24.095Z,7.88
2022-10-28T07:08:27.904Z,8.18
2022-10-28T07:09:30.126Z,7.88
2022-10-28T07:10:32.311Z,7.97
2022-10-28T07:11:34.521Z,7.88
2022-10-28T07:12:37.388Z,7.18
2022-10-28T07:13:41.121Z,7.90
2022-10-28T07:14:44.680Z,8.15
2022-10-28T07:15:54.579Z,7.65
2022-10-28T07:16:56.942Z,7.60
2022-10-28T07:17:59.705Z,8.02
2022-10-28T07:19:02.137Z,7.80
2022-10-28T07:20:04.960Z,8.20
2022-10-28T07:21:07.198Z,8.20
2022-10-28T07:22:09.573Z,7.93
2022-10-28T07:23:13.227Z,7.40
2022-10-28T07:24:15.522Z,8.32
2022-10-28T07:25:20.729Z,7.90
2022-10-28T07:26:23.268Z,8.32
2022-10-28T07:27:25.527Z,7.88
2022-10-28T07:28:28.342Z,6.95
2022-10-28T07:29:30.552Z,8.25
2022-10-28T07:30:33.232Z,6.80
2022-10-28T07:31:35.403Z,7.22
2022-10-28T07:32:37.561Z,7.60
2022-10-28T07:33:40.056Z,7.13
2022-10-28T07:34:42.674Z,8.00
2022-10-28T07:35:44.908Z,7.65
2022-10-28T07:36:49.828Z,7.85
2022-10-28T07:37:54.308Z,7.38
2022-10-28T07:38:56.536Z,7.55
2022-10-28T07:39:58.814Z,7.40
2022-10-28T07:41:08.967Z,7.82
2022-10-28T07:42:11.162Z,7.55
2022-10-28T07:43:13.317Z,7.72
2022-10-28T07:44:15.675Z,7.60
2022-10-28T07:45:18.209Z,8.00
2022-10-28T07:46:20.449Z,8.23
2022-10-28T07:47:22.635Z,8.32
2022-10-28T07:48:24.863Z,8.15
2022-10-28T07:49:27.241Z,7.65
2022-10-28T07:50:29.497Z,8.70
2022-10-28T07:51:31.883Z,7.45
2022-10-28T07:52:35.877Z,7.88
2022-10-28T07:53:41.874Z,8.13
2022-10-28T07:54:44.237Z,8.00
2022-10-28T07:55:55.198Z,8.00
2022-10-28T07:56:57.468Z,7.28
2022-10-28T07:57:59.772Z,7.82
2022-10-28T07:59:01.946Z,8.65
2022-10-28T08:00:06.119Z,9.43
2022-10-28T08:01:28.560Z,8.30
2022-10-28T08:02:32.900Z,8.38
2022-10-28T08:03:38.890Z,7.82
2022-10-28T08:04:41.593Z,7.68
2022-10-28T08:05:44.282Z,8.13
2022-10-28T08:06:48.774Z,8.18
2022-10-28T08:07:51.593Z,7.43
2022-10-28T08:08:56.604Z,7.60
2022-10-28T08:09:59.291Z,8.02
2022-10-28T08:11:12.528Z,8.20
2022-10-28T08:12:15.938Z,7.65
2022-10-28T08:13:20.644Z,7.85
2022-10-28T08:14:22.834Z,7.75
2022-10-28T08:15:25.821Z,8.18
2022-10-28T08:16:29.095Z,7.80
2022-10-28T08:17:31.503Z,7.70
2022-10-28T08:18:37.719Z,7.13
2022-10-28T08:19:40.118Z,6.85
2022-10-28T08:20:42.317Z,7.65
2022-10-28T08:21:44.668Z,7.53
2022-10-28T08:22:47.215Z,7.40
2022-10-28T08:23:49.818Z,7.22
2022-10-28T08:24:52.049Z,7.50
2022-10-28T08:25:54.232Z,7.50
2022-10-28T08:26:56.434Z,7.10
2022-10-28T08:27:58.587Z,7.22
2022-10-28T08:29:01.592Z,7.60
2022-10-28T08:30:04.894Z,6.65
2022-10-28T08:31:11.847Z,7.30
2022-10-28T08:32:13.985Z,7.28
2022-10-28T08:33:16.305Z,7.20
2022-10-28T08:34:18.502Z,6.38
2022-10-28T08:35:20.898Z,6.82
2022-10-28T08:36:23.206Z,7.03
2022-10-28T08:37:26.096Z,6.85
2022-10-28T08:38:28.578Z,7.28
2022-10-28T08:39:30.740Z,6.60
2022-10-28T08:40:44.444Z,7.18
2022-10-28T08:42:04.621Z,7.07
2022-10-28T08:43:39.991Z,6.50
2022-10-28T08:45:20.227Z,6.85
2022-10-28T08:46:37.474Z,6.40
2022-10-28T08:48:12.384Z,6.78
2022-10-28T08:49:18.851Z,6.97
2022-10-28T08:50:27.655Z,6.72
2022-10-28T08:51:44.351Z,7.43
2022-10-28T08:53:10.235Z,6.75
2022-10-28T08:54:24.562Z,6.68
2022-10-28T08:55:38.685Z,6.53
2022-10-28T08:56:48.957Z,6.43
2022-10-28T08:57:59.442Z,7.88
2022-10-28T08:59:04.394Z,6.90
2022-10-28T09:00:13.528Z,7.20
2022-10-28T09:01:46.491Z,7.25
2022-10-28T09:02:55.427Z,6.53
2022-10-28T09:04:02.277Z,6.10
2022-10-28T09:05:16.290Z,6.68
2022-10-28T09:06:18.526Z,9.05
2022-10-28T09:07:22.396Z,8.00
2022-10-28T09:08:29.661Z,7.85
2022-10-28T09:09:33.253Z,8.20
2022-10-28T09:11:09.295Z,7.60
2022-10-28T09:12:27.724Z,6.18
2022-10-28T09:13:41.248Z,6.28
2022-10-28T09:15:03.863Z,6.30
2022-10-28T09:16:21.447Z,6.25
2022-10-28T09:18:04.198Z,6.18
2022-10-28T09:19:20.869Z,7.18
2022-10-28T09:20:26.988Z,6.13
2022-10-28T09:21:40.318Z,7.05
2022-10-28T09:23:02.577Z,7.18
2022-10-28T09:24:26.835Z,5.68
2022-10-28T09:26:02.771Z,6.03
2022-10-28T09:27:24.865Z,6.28
2022-10-28T09:28:30.103Z,8.15
2022-10-28T09:30:27.477Z,7.60
2022-10-28T09:31:50.840Z,5.82
2022-10-28T09:33:30.251Z,5.85
2022-10-28T09:35:01.966Z,7.95
2022-10-28T09:36:09.857Z,6.43
2022-10-28T09:37:22.935Z,5.70
2022-10-28T09:38:29.898Z,6.57
2022-10-28T09:39:45.877Z,5.75
2022-10-28T09:40:56.574Z,6.38
2022-10-28T09:43:27.907Z,6.38
2022-10-28T09:44:42.685Z,5.43
2022-10-28T09:45:48.156Z,6.57
2022-10-28T09:47:00.839Z,6.03
2022-10-28T09:48:16.790Z,5.07
2022-10-28T09:49:26.221Z,5.95
2022-10-28T09:50:31.244Z,6.40
2022-10-28T09:51:43.331Z,5.20
2022-10-28T09:52:59.634Z,5.25
2022-10-28T09:54:02.469Z,5.88
2022-10-28T09:55:16.463Z,5.50
2022-10-28T09:56:18.720Z,5.70
2022-10-28T09:57:24.740Z,5.50
2022-10-28T09:58:26.956Z,5.13
2022-10-28T09:59:29.349Z,5.68
2022-10-28T10:00:31.988Z,5.50
2022-10-28T10:01:36.206Z,5.30
2022-10-28T10:02:40.506Z,5.00
2022-10-28T10:03:43.636Z,5.65
2022-10-28T10:04:45.776Z,5.07
2022-10-28T10:05:52.007Z,5.75
2022-10-28T10:07:09.476Z,5.57
2022-10-28T10:08:16.322Z,6.75
2022-10-28T10:09:23.739Z,5.53
2022-10-28T10:10:31.389Z,5.70
2022-10-28T10:11:39.639Z,5.85
2022-10-28T10:12:42.831Z,5.95
2022-10-28T10:13:46.008Z,6.30
2022-10-28T10:14:51.947Z,6.10
2022-10-28T10:16:09.566Z,6.28
2022-10-28T10:17:32.865Z,6.00
2022-10-28T10:18:36.865Z,5.63
2022-10-28T10:19:59.165Z,5.57
2022-10-28T10:21:01.681Z,5.47
2022-10-28T10:22:04.032Z,4.75
2022-10-28T10:23:31.136Z,5.75
2022-10-28T10:24:35.990Z,4.97
2022-10-28T10:25:38.291Z,6.63
2022-10-28T10:26:40.457Z,5.28
2022-10-28T10:27:42.973Z,5.85
2022-10-28T10:28:52.069Z,5.57
2022-10-28T10:29:55.475Z,5.35
2022-10-28T10:31:00.489Z,5.25
2022-10-28T10:32:19.554Z,5.03
2022-10-28T10:33:40.973Z,5.80
2022-10-28T10:35:01.897Z,5.57
2022-10-28T10:37:21.207Z,8.27
2022-10-28T10:38:23.763Z,4.90
2022-10-28T10:39:35.925Z,5.28
2022-10-28T10:40:48.630Z,5.72
2022-10-28T10:41:50.790Z,5.57
2022-10-28T10:43:12.802Z,5.82
2022-10-28T10:44:22.075Z,6.18
2022-10-28T10:45:26.506Z,5.95
2022-10-28T10:46:28.900Z,5.68
2022-10-28T10:47:31.087Z,4.95
2022-10-28T10:48:36.409Z,5.45
2022-10-28T10:49:39.104Z,5.00
2022-10-28T10:50:51.415Z,5.72
2022-10-28T10:51:59.353Z,5.10
2022-10-28T10:53:01.843Z,5.10
2022-10-28T10:54:04.379Z,5.78
2022-10-28T10:55:19.183Z,5.22
2022-10-28T10:56:33.291Z,6.25
2022-10-28T10:57:35.759Z,5.00
2022-10-28T10:58:40.573Z,5.10
2022-10-28T10:59:47.195Z,5.57
2022-10-28T11:00:52.563Z,5.05
2022-10-28T11:01:57.801Z,5.53
2022-10-28T11:03:01.199Z,5.95
2022-10-28T11:04:15.167Z,5.15
2022-10-28T11:05:25.799Z,6.57
2022-10-28T11:06:36.729Z,6.13
2022-10-28T11:07:47.827Z,4.78
2022-10-28T11:08:56.773Z,5.80
2022-10-28T11:09:59.542Z,6.80
2022-10-28T11:11:12.988Z,6.20
2022-10-28T11:12:29.547Z,5.68
2022-10-28T11:13:33.511Z,5.60
2022-10-28T11:14:35.705Z,5.05
2022-10-28T11:15:38.052Z,5.82
2022-10-28T11:16:51.419Z,5.50
2022-10-28T11:17:56.492Z,5.20
2022-10-28T11:19:16.052Z,5.10
2022-10-28T11:20:25.463Z,5.93
2022-10-28T11:21:42.931Z,5.20
2022-10-28T11:22:53.947Z,4.78
2022-10-28T11:24:06.533Z,5.82
2022-10-28T11:25:35.252Z,4.93
2022-10-28T11:26:45.081Z,5.07
2022-10-28T11:28:08.284Z,5.30
2022-10-28T11:29:14.415Z,5.68
2022-10-28T11:30:19.390Z,4.60
2022-10-28T11:31:52.395Z,5.20
2022-10-28T11:33:32.273Z,5.07
2022-10-28T11:34:43.600Z,5.10
2022-10-28T11:37:20.634Z,4.38
2022-10-28T11:38:32.086Z,4.75
2022-10-28T11:39:53.664Z,5.10
2022-10-28T11:41:41.240Z,4.82
2022-10-28T11:43:11.681Z,5.45
2022-10-28T11:44:34.491Z,5.00
2022-10-28T11:45:51.308Z,5.55
2022-10-28T11:47:22.293Z,4.32
2022-10-28T11:48:43.064Z,4.82
2022-10-28T11:50:08.206Z,4.90
2022-10-28T11:51:25.201Z,5.03
2022-10-28T11:52:44.179Z,4.93
2022-10-28T11:54:05.628Z,4.40
2022-10-28T11:55:32.937Z,4.60
2022-10-28T11:56:50.203Z,4.68
2022-10-28T11:58:31.367Z,7.82
2022-10-28T12:00:48.673Z,4.55
2022-10-28T12:02:14.063Z,5.32
2022-10-28T12:03:41.250Z,4.88
2022-10-28T12:05:03.832Z,5.05
2022-10-28T12:06:16.816Z,4.80
2022-10-28T12:07:43.903Z,4.68
2022-10-28T12:09:04.726Z,4.93
2022-10-28T12:11:36.884Z,5.25
2022-10-28T12:13:00.232Z,4.00
2022-10-28T12:14:30.586Z,4.32
2022-10-28T12:15:55.344Z,4.68
2022-10-28T12:17:24.402Z,4.80
2022-10-28T12:18:43.176Z,4.97
2022-10-28T12:19:56.179Z,4.50
2022-10-28T12:21:22.178Z,4.38
2022-10-28T12:22:31.589Z,4.63
2022-10-28T12:23:35.936Z,4.72
2022-10-28T12:24:42.204Z,4.82
2022-10-28T12:25:49.023Z,4.63
2022-10-28T12:26:58.530Z,4.32
2022-10-28T12:28:05.753Z,4.38
2022-10-28T12:29:30.529Z,5.10
2022-10-28T12:30:36.924Z,4.30
2022-10-28T12:31:50.270Z,4.57
2022-10-28T12:33:07.518Z,4.43
2022-10-28T12:34:15.773Z,4.88
2022-10-28T12:35:24.455Z,4.43
2022-10-28T12:36:45.161Z,4.68
2022-10-28T12:37:54.506Z,4.60
2022-10-28T12:39:02.937Z,4.72
2022-10-28T12:40:17.053Z,4.15
2022-10-28T12:41:45.716Z,4.20
2022-10-28T12:42:58.021Z,4.60
2022-10-28T12:44:11.448Z,4.63
2022-10-28T12:45:19.184Z,4.22
2022-10-28T12:46:39.051Z,4.60
2022-10-28T12:47:55.817Z,5.00
2022-10-28T12:49:13.471Z,5.07
2022-10-28T12:50:38.168Z,4.07
2022-10-28T12:51:41.393Z,4.50
2022-10-28T12:53:01.661Z,4.53
2022-10-28T12:54:42.615Z,4.85
2022-10-28T12:55:51.073Z,4.45
2022-10-28T12:57:22.526Z,3.90
2022-10-28T12:58:46.274Z,4.47
2022-10-28T12:59:54.888Z,4.28
2022-10-28T13:01:19.279Z,5.47
2022-10-28T13:02:29.422Z,4.68
2022-10-28T13:03:31.595Z,4.43
2022-10-28T13:04:33.981Z,5.18
2022-10-28T13:05:42.494Z,4.65
2022-10-28T13:07:03.449Z,5.43
2022-10-28T13:08:17.243Z,5.13
2022-10-28T13:09:50.073Z,4.63
2022-10-28T13:11:17.721Z,4.57
2022-10-28T13:12:26.042Z,4.78
2022-10-28T13:13:40.414Z,4.60
2022-10-28T13:14:51.788Z,4.38
2022-10-28T13:16:10.467Z,5.00
2022-10-28T13:17:44.528Z,5.22
2022-10-28T13:18:46.628Z,5.22
2022-10-28T13:20:03.120Z,4.70
2022-10-28T13:21:08.065Z,5.32
2022-10-28T13:22:31.732Z,5.50
2022-10-28T13:23:51.405Z,4.68
2022-10-28T13:25:01.209Z,4.88
2022-10-28T13:26:27.007Z,5.60
2022-10-28T13:27:31.988Z,5.43
2022-10-28T13:28:41.392Z,5.57
2022-10-28T13:29:49.771Z,5.40
2022-10-28T13:30:55.815Z,5.40
2022-10-28T13:31:58.122Z,5.88
2022-10-28T13:33:14.055Z,5.82
2022-10-28T13:34:19.287Z,5.07
2022-10-28T13:35:24.023Z,5.05
2022-10-28T13:36:36.752Z,4.90
2022-10-28T13:37:40.335Z,5.35
2022-10-28T13:38:44.054Z,6.13
2022-10-28T13:39:47.304Z,5.32
2022-10-28T13:40:58.119Z,5.70
2022-10-28T13:42:12.497Z,5.25
2022-10-28T13:43:41.691Z,4.95
2022-10-28T13:44:49.897Z,5.47
2022-10-28T13:45:53.786Z,5.72
2022-10-28T13:46:58.626Z,5.85
2022-10-28T13:48:42.246Z,5.63
2022-10-28T13:50:05.691Z,6.05
2022-10-28T13:51:10.940Z,5.18
2022-10-28T13:52:19.133Z,5.32
2022-10-28T13:53:47.745Z,5.43
2022-10-28T13:54:53.980Z,5.85
2022-10-28T13:55:57.756Z,5.30
2022-10-28T13:57:14.117Z,5.88
2022-10-28T13:58:24.445Z,6.25
2022-10-28T13:59:31.647Z,6.15
2022-10-28T14:00:36.123Z,5.32
2022-10-28T14:01:56.528Z,6.20
2022-10-28T14:03:26.259Z,5.85
2022-10-28T14:04:33.205Z,6.35
2022-10-28T14:05:38.452Z,6.13
2022-10-28T14:06:40.765Z,6.13
2022-10-28T14:07:57.458Z,5.85
2022-10-28T14:09:00.048Z,5.22
2022-10-28T14:10:20.827Z,6.10
2022-10-28T14:11:28.563Z,6.07
2022-10-28T14:12:32.800Z,5.55
2022-10-28T14:13:47.725Z,6.20
2022-10-28T14:15:06.517Z,7.03
2022-10-28T14:16:20.331Z,6.65
2022-10-28T14:17:27.884Z,6.05
2022-10-28T14:18:42.967Z,6.47
2022-10-28T14:19:52.783Z,6.32
2022-10-28T14:21:00.622Z,6.00
2022-10-28T14:22:07.777Z,5.93
2022-10-28T14:23:22.162Z,6.53
2022-10-28T14:24:44.743Z,5.88
2022-10-28T14:25:49.678Z,6.13
2022-10-28T14:27:26.941Z,6.40
2022-10-28T14:28:32.202Z,5.97
2022-10-28T14:30:12.254Z,5.95
2022-10-28T14:31:15.642Z,6.45
2022-10-28T14:32:32.957Z,5.53
2022-10-28T14:33:41.383Z,5.60
2022-10-28T14:34:45.869Z,6.78
2022-10-28T14:35:50.509Z,6.65
2022-10-28T14:37:17.236Z,6.47
2022-10-28T14:38:53.318Z,5.65
2022-10-28T14:40:43.478Z,6.32
2022-10-28T14:41:45.592Z,5.93
2022-10-28T14:42:56.547Z,6.88
2022-10-28T14:45:19.108Z,6.45
2022-10-28T14:47:00.449Z,6.47
2022-10-28T14:48:05.399Z,6.78
2022-10-28T14:49:27.600Z,6.72
2022-10-28T14:50:40.384Z,6.45
2022-10-28T14:51:44.579Z,6.60
2022-10-28T14:52:50.420Z,6.93
2022-10-28T14:53:57.644Z,6.35
2022-10-28T14:55:02.520Z,6.03
2022-10-28T14:56:31.205Z,7.07
2022-10-28T14:57:34.488Z,6.00
2022-10-28T14:58:44.554Z,7.45
2022-10-28T14:59:46.837Z,6.10
2022-10-28T15:01:17.452Z,6.72
2022-10-28T15:02:24.627Z,6.28
2022-10-28T15:03:27.597Z,7.05
2022-10-28T15:04:30.234Z,6.60
2022-10-28T15:05:32.844Z,6.25
2022-10-28T15:06:41.692Z,7.10
2022-10-28T15:07:44.406Z,7.10
2022-10-28T15:08:46.715Z,6.53
2022-10-28T15:09:53.314Z,7.20
2022-10-28T15:10:55.988Z,7.05
2022-10-28T15:12:04.765Z,6.97
2022-10-28T15:13:07.079Z,7.65
2022-10-28T15:14:34.094Z,7.82
2022-10-28T15:15:36.302Z,7.10
2022-10-28T15:16:46.387Z,7.43
2022-10-28T15:17:49.545Z,6.75
2022-10-28T15:18:53.906Z,6.97
2022-10-28T15:19:58.904Z,7.53
2022-10-28T15:21:09.233Z,7.32
2022-10-28T15:22:24.149Z,7.10
2022-10-28T15:23:26.349Z,7.00
2022-10-28T15:24:28.514Z,7.68
2022-10-28T15:25:30.689Z,6.60